Time;durP1;ratioP1;P1;durP2;ratioP2;P2;SDS_P1;SDS_P2;PMS_P1;PMS_P2;Temp;Humidity;BMP_temperature;BMP_pressure;BME280_temperature;BME280_humidity;BME280_pressure;Samples;Min_cycle;Max_cycle;Signal;HPM_P1;HPM_P2
2024/02/24 00:01:57;;;;;;;0.10;0.10;;;6.50;99.90;;;;;;5102043;28;20039;-72
2024/02/24 00:04:22;;;;;;;0.73;0.60;;;6.40;99.90;;;;;;5085550;28;20121;-72
2024/02/24 00:06:48;;;;;;;1.55;0.50;;;6.40;99.90;;;;;;5103475;28;20472;-72
2024/02/24 00:09:14;;;;;;;0.63;0.20;;;6.30;99.90;;;;;;5100025;28;20124;-72
2024/02/24 00:11:39;;;;;;;0.65;0.40;;;6.40;99.90;;;;;;5079839;28;20032;-72
2024/02/24 00:14:05;;;;;;;0.77;0.28;;;6.40;99.90;;;;;;5099694;28;20557;-72
2024/02/24 00:16:31;;;;;;;2.10;0.60;;;6.40;99.90;;;;;;5103147;28;20040;-73
2024/02/24 00:18:59;;;;;;;0.20;0.13;;;6.40;99.90;;;;;;5097399;28;20411;-72
2024/02/24 00:21:27;;;;;;;0.13;0.13;;;6.40;99.90;;;;;;5106049;28;20128;-72
2024/02/24 00:23:53;;;;;;;4.68;0.15;;;6.30;99.90;;;;;;5098005;28;20047;-73
2024/02/24 00:26:19;;;;;;;0.30;0.22;;;6.30;99.90;;;;;;5102002;28;20040;-72
2024/02/24 00:28:45;;;;;;;0.08;0.08;;;6.30;99.90;;;;;;5099171;28;20085;-73
2024/02/24 00:31:11;;;;;;;0.35;0.10;;;6.30;99.90;;;;;;5106944;28;20127;-72
2024/02/24 00:33:38;;;;;;;0.40;0.20;;;6.20;99.90;;;;;;5107694;28;20054;-73
2024/02/24 00:36:04;;;;;;;0.70;0.17;;;6.20;99.90;;;;;;5082818;28;20121;-73
2024/02/24 00:38:29;;;;;;;1.20;0.60;;;6.20;99.90;;;;;;5097529;28;20109;-72
2024/02/24 00:40:55;;;;;;;0.05;0.05;;;6.10;99.90;;;;;;5084363;28;20456;-72
2024/02/24 00:43:21;;;;;;;0.20;0.20;;;6.10;99.90;;;;;;5105128;28;20402;-72
2024/02/24 00:45:47;;;;;;;0.10;0.10;;;6.00;99.90;;;;;;5086171;28;20081;-72
2024/02/24 00:48:13;;;;;;;0.22;0.10;;;6.10;99.90;;;;;;5089827;28;20050;-72
2024/02/24 00:50:38;;;;;;;0.60;0.35;;;6.00;99.90;;;;;;5088342;28;20434;-72
2024/02/24 00:53:05;;;;;;;0.70;0.30;;;6.10;99.90;;;;;;5087973;28;20682;-72
2024/02/24 00:55:31;;;;;;;0.35;0.30;;;6.10;99.90;;;;;;5107866;28;20529;-72
2024/02/24 00:57:56;;;;;;;1.00;0.20;;;6.10;99.90;;;;;;5107078;28;20064;-72
2024/02/24 01:00:22;;;;;;;0.20;0.10;;;6.10;99.90;;;;;;5106985;28;20066;-72
2024/02/24 01:02:48;;;;;;;0.28;0.13;;;6.00;99.90;;;;;;5105506;28;20068;-72
2024/02/24 01:05:14;;;;;;;2.80;0.25;;;6.10;99.90;;;;;;5105833;28;20070;-72
2024/02/24 01:07:39;;;;;;;0.13;0.13;;;6.00;99.90;;;;;;5106630;28;20039;-73
2024/02/24 01:10:06;;;;;;;0.28;0.20;;;6.10;99.90;;;;;;5100241;28;20437;-72
2024/02/24 01:12:31;;;;;;;0.30;0.20;;;6.00;99.90;;;;;;5092356;28;20391;-72
2024/02/24 01:14:57;;;;;;;0.70;0.32;;;6.10;99.90;;;;;;5105704;28;20039;-72
2024/02/24 01:17:23;;;;;;;0.22;0.20;;;6.10;99.90;;;;;;5106293;28;20059;-72
2024/02/24 01:19:48;;;;;;;0.20;0.20;;;6.10;99.90;;;;;;5088176;28;20757;-72
2024/02/24 01:22:16;;;;;;;1.58;0.65;;;6.10;99.90;;;;;;5107432;28;20080;-72
2024/02/24 01:24:43;;;;;;;0.25;0.25;;;6.20;99.90;;;;;;5105370;28;20067;-72
2024/02/24 01:27:08;;;;;;;0.57;0.20;;;6.20;99.90;;;;;;5110713;28;20155;-72
2024/02/24 01:29:34;;;;;;;0.65;0.30;;;6.20;99.90;;;;;;5085127;28;20110;-72
2024/02/24 01:32:01;;;;;;;0.15;0.15;;;6.20;99.90;;;;;;5110103;28;20043;-72
2024/02/24 01:34:30;;;;;;;0.88;0.30;;;6.10;99.90;;;;;;5109232;28;20035;-72
2024/02/24 01:36:56;;;;;;;0.47;0.15;;;6.10;99.90;;;;;;5090682;28;20080;-72
2024/02/24 01:39:22;;;;;;;2.15;0.40;;;6.00;99.90;;;;;;5106185;28;20043;-72
2024/02/24 01:41:48;;;;;;;0.63;0.63;;;6.00;99.90;;;;;;5105951;28;20047;-73
2024/02/24 01:44:18;;;;;;;0.38;0.15;;;5.90;99.90;;;;;;5106094;28;20139;-73
2024/02/24 01:46:47;;;;;;;0.55;0.32;;;5.90;99.90;;;;;;5103720;28;20047;-72
2024/02/24 01:49:14;;;;;;;0.10;0.10;;;5.90;99.90;;;;;;5103686;28;20068;-73
2024/02/24 01:51:41;;;;;;;2.55;0.45;;;5.80;99.90;;;;;;5087622;28;20502;-73
2024/02/24 01:54:08;;;;;;;2.50;0.40;;;5.80;99.90;;;;;;5084705;28;20431;-72
2024/02/24 01:56:37;;;;;;;0.47;0.28;;;5.70;99.90;;;;;;5101696;28;20043;-73
2024/02/24 01:59:03;;;;;;;0.15;0.10;;;5.80;99.90;;;;;;5084530;28;20048;-72
2024/02/24 02:01:29;;;;;;;0.10;0.10;;;5.70;99.90;;;;;;5104964;28;20394;-72
2024/02/24 02:03:56;;;;;;;0.25;0.25;;;5.70;99.90;;;;;;5086034;28;20047;-73
2024/02/24 02:06:24;;;;;;;0.20;0.20;;;5.60;99.90;;;;;;5107528;28;20688;-73
2024/02/24 02:08:50;;;;;;;0.22;0.20;;;5.60;99.90;;;;;;5102528;28;20043;-72
2024/02/24 02:11:16;;;;;;;0.22;0.22;;;5.60;99.90;;;;;;5104256;28;20494;-72
2024/02/24 02:13:41;;;;;;;1.08;0.32;;;5.60;99.90;;;;;;5107665;28;20116;-72
2024/02/24 02:16:07;;;;;;;0.30;0.30;;;5.50;99.90;;;;;;5109401;28;20039;-72
2024/02/24 02:18:33;;;;;;;0.10;0.10;;;5.50;99.90;;;;;;5108585;28;20036;-73
2024/02/24 02:21:00;;;;;;;0.00;0.00;;;5.40;99.90;;;;;;5104820;28;20119;-72
2024/02/24 02:23:25;;;;;;;6.22;0.40;;;5.40;99.90;;;;;;5105422;28;20046;-72
2024/02/24 02:25:51;;;;;;;0.63;0.20;;;5.40;99.90;;;;;;5102527;28;20044;-73
2024/02/24 02:28:17;;;;;;;0.73;0.40;;;5.40;99.90;;;;;;5105770;28;20062;-72
2024/02/24 02:30:42;;;;;;;0.13;0.13;;;5.30;99.90;;;;;;5103888;28;20040;-72
2024/02/24 02:33:08;;;;;;;0.17;0.17;;;5.30;99.90;;;;;;5107907;28;20165;-72
2024/02/24 02:35:34;;;;;;;0.60;0.30;;;5.30;99.90;;;;;;5106549;28;20153;-73
2024/02/24 02:38:01;;;;;;;2.22;0.43;;;5.20;99.90;;;;;;5108747;28;20078;-72
2024/02/24 02:40:26;;;;;;;0.10;0.10;;;5.20;99.90;;;;;;5078871;28;20495;-72
2024/02/24 02:42:52;;;;;;;0.95;0.20;;;5.20;99.90;;;;;;5106576;28;20039;-72
2024/02/24 02:45:18;;;;;;;0.00;0.00;;;5.20;99.90;;;;;;5106194;28;20047;-72
2024/02/24 02:47:43;;;;;;;0.03;0.03;;;5.20;99.90;;;;;;5109490;28;20093;-72
2024/02/24 02:50:09;;;;;;;0.30;0.30;;;5.20;99.90;;;;;;5082748;28;20061;-72
2024/02/24 02:52:35;;;;;;;0.10;0.10;;;5.10;99.90;;;;;;5108331;28;20075;-73
2024/02/24 02:55:01;;;;;;;0.40;0.35;;;5.10;99.90;;;;;;5105235;28;20038;-72
2024/02/24 02:57:27;;;;;;;0.10;0.10;;;5.10;99.90;;;;;;5106031;28;20048;-72
2024/02/24 02:59:52;;;;;;;0.20;0.13;;;5.10;99.90;;;;;;5107031;28;20387;-72
2024/02/24 03:02:18;;;;;;;0.20;0.10;;;5.00;99.90;;;;;;5104450;28;20059;-72
2024/02/24 03:04:44;;;;;;;2.90;0.30;;;5.00;99.90;;;;;;5107153;28;20521;-72
2024/02/24 03:07:09;;;;;;;1.27;0.30;;;5.00;99.90;;;;;;5103006;28;20032;-72
2024/02/24 03:09:35;;;;;;;0.50;0.30;;;4.90;99.90;;;;;;5107077;28;20035;-72
2024/02/24 03:12:01;;;;;;;0.88;0.40;;;4.90;99.90;;;;;;5102747;28;20119;-72
2024/02/24 03:14:27;;;;;;;1.08;0.43;;;4.90;99.90;;;;;;5108504;28;20044;-72
2024/02/24 03:16:54;;;;;;;1.42;0.38;;;4.80;99.90;;;;;;5106635;28;20145;-72
2024/02/24 03:19:19;;;;;;;0.52;0.20;;;4.70;99.90;;;;;;5100845;28;20035;-72
2024/02/24 03:21:45;;;;;;;0.08;0.08;;;4.80;99.90;;;;;;5101004;28;20044;-72
2024/02/24 03:24:11;;;;;;;1.30;0.52;;;4.80;99.90;;;;;;5104837;28;20046;-72
2024/02/24 03:26:39;;;;;;;0.65;0.32;;;4.80;99.90;;;;;;5102635;28;20913;-72
2024/02/24 03:29:04;;;;;;;0.65;0.52;;;4.70;99.90;;;;;;5101966;28;20040;-72
2024/02/24 03:31:30;;;;;;;0.17;0.17;;;4.70;99.90;;;;;;5089010;28;20035;-72
2024/02/24 03:33:56;;;;;;;0.50;0.40;;;4.70;99.90;;;;;;5104571;28;20027;-72
2024/02/24 03:36:22;;;;;;;1.00;0.57;;;4.70;99.90;;;;;;5084135;28;20533;-72
2024/02/24 03:38:47;;;;;;;0.20;0.10;;;4.70;99.90;;;;;;5106908;28;20035;-72
2024/02/24 03:41:13;;;;;;;0.40;0.20;;;4.70;99.90;;;;;;5106487;28;20054;-72
2024/02/24 03:43:39;;;;;;;0.10;0.10;;;4.70;99.90;;;;;;5104067;28;20100;-72
2024/02/24 03:46:05;;;;;;;0.10;0.10;;;4.70;99.90;;;;;;5105607;28;20393;-73
2024/02/24 03:48:32;;;;;;;0.70;0.32;;;4.70;99.90;;;;;;5103569;28;20043;-74
2024/02/24 03:50:59;;;;;;;1.60;0.40;;;4.70;99.90;;;;;;5104980;28;20048;-74
2024/02/24 03:53:25;;;;;;;0.90;0.30;;;4.70;99.90;;;;;;5101972;28;20484;-73
2024/02/24 03:55:51;;;;;;;0.00;0.00;;;4.70;99.90;;;;;;5107516;28;20535;-73
2024/02/24 03:58:18;;;;;;;0.17;0.10;;;4.60;99.90;;;;;;5103937;28;20067;-73
2024/02/24 04:00:44;;;;;;;1.50;0.40;;;4.60;99.90;;;;;;5108150;28;20051;-72
2024/02/24 04:03:10;;;;;;;0.10;0.10;;;4.60;99.90;;;;;;5098919;28;20032;-73
2024/02/24 04:05:36;;;;;;;0.63;0.25;;;4.60;99.90;;;;;;5081229;28;20043;-73
2024/02/24 04:08:03;;;;;;;0.73;0.30;;;4.50;99.90;;;;;;5107489;28;20040;-73
2024/02/24 04:10:29;;;;;;;0.38;0.22;;;4.50;99.90;;;;;;5106019;28;20117;-73
2024/02/24 04:12:55;;;;;;;0.30;0.20;;;4.50;99.90;;;;;;5112815;28;20467;-73
2024/02/24 04:15:21;;;;;;;0.10;0.10;;;4.40;99.90;;;;;;5092393;28;20091;-73
2024/02/24 04:17:48;;;;;;;1.67;0.28;;;4.50;99.90;;;;;;5094345;28;20047;-72
2024/02/24 04:20:14;;;;;;;0.43;0.25;;;4.50;99.90;;;;;;5094258;28;20039;-72
2024/02/24 04:22:41;;;;;;;1.55;0.45;;;4.50;99.90;;;;;;5111084;28;20077;-73
2024/02/24 04:25:08;;;;;;;0.13;0.13;;;4.50;99.90;;;;;;5106326;28;20071;-72
2024/02/24 04:27:33;;;;;;;0.50;0.20;;;4.40;99.90;;;;;;5110221;28;20123;-73
2024/02/24 04:29:59;;;;;;;0.10;0.10;;;4.50;99.90;;;;;;5107899;28;20190;-73
2024/02/24 04:32:26;;;;;;;0.65;0.20;;;4.50;99.90;;;;;;5111346;28;20036;-73
2024/02/24 04:34:52;;;;;;;0.50;0.45;;;4.50;99.90;;;;;;5107833;28;20068;-72
2024/02/24 04:37:18;;;;;;;0.22;0.13;;;4.50;99.90;;;;;;5109734;28;20444;-72
2024/02/24 04:39:43;;;;;;;0.30;0.30;;;4.50;99.90;;;;;;5108186;28;20047;-73
2024/02/24 04:42:09;;;;;;;2.65;0.20;;;4.50;99.90;;;;;;5111488;28;20155;-72
2024/02/24 04:44:35;;;;;;;0.40;0.20;;;4.50;99.90;;;;;;5105488;28;20055;-73
2024/02/24 04:47:01;;;;;;;0.20;0.20;;;4.50;99.90;;;;;;5113771;28;20119;-73
2024/02/24 04:49:26;;;;;;;0.28;0.13;;;4.50;99.90;;;;;;5107418;28;20044;-73
2024/02/24 04:51:52;;;;;;;0.20;0.20;;;4.40;99.90;;;;;;5112079;28;20109;-73
2024/02/24 04:54:18;;;;;;;0.30;0.20;;;4.50;99.90;;;;;;5109948;28;20044;-72
2024/02/24 04:56:43;;;;;;;0.57;0.10;;;4.50;99.90;;;;;;5112147;28;20039;-72
2024/02/24 04:59:09;;;;;;;0.20;0.17;;;4.50;99.90;;;;;;5104535;28;20032;-72
2024/02/24 05:01:37;;;;;;;0.15;0.15;;;4.50;99.90;;;;;;5106266;28;20040;-73
2024/02/24 05:04:03;;;;;;;0.10;0.10;;;4.50;99.90;;;;;;5109643;28;20044;-73
2024/02/24 05:06:29;;;;;;;0.20;0.20;;;4.50;99.90;;;;;;5110481;28;20041;-73
2024/02/24 05:08:55;;;;;;;0.35;0.13;;;4.40;99.90;;;;;;5088256;28;20108;-73
2024/02/24 05:11:21;;;;;;;0.22;0.22;;;4.50;99.90;;;;;;5120222;27;20461;-72
2024/02/24 05:13:47;;;;;;;0.00;0.00;;;4.50;99.90;;;;;;5089243;28;20070;-72
2024/02/24 05:16:14;;;;;;;0.50;0.30;;;4.40;99.90;;;;;;5103422;28;20068;-72
2024/02/24 05:18:40;;;;;;;0.20;0.17;;;4.40;99.90;;;;;;5107016;28;20051;-72
2024/02/24 05:21:06;;;;;;;1.10;0.40;;;4.40;99.90;;;;;;5106819;28;20487;-72
2024/02/24 05:23:32;;;;;;;6.03;0.30;;;4.40;99.90;;;;;;5090394;28;20113;-72
2024/02/24 05:25:58;;;;;;;0.55;0.10;;;4.40;99.90;;;;;;5105747;28;20036;-73
2024/02/24 05:28:23;;;;;;;0.40;0.20;;;4.30;99.90;;;;;;5109487;28;20208;-73
2024/02/24 05:30:49;;;;;;;0.35;0.10;;;4.30;99.90;;;;;;5107518;28;20515;-73
2024/02/24 05:33:15;;;;;;;0.70;0.25;;;4.40;99.90;;;;;;5108806;28;20042;-73
2024/02/24 05:35:41;;;;;;;0.47;0.25;;;4.40;99.90;;;;;;5105608;28;20072;-73
2024/02/24 05:38:07;;;;;;;0.10;0.10;;;4.40;99.90;;;;;;5104056;28;20462;-72
2024/02/24 05:40:32;;;;;;;0.77;0.40;;;4.40;99.90;;;;;;5105935;28;20035;-73
2024/02/24 05:42:58;;;;;;;0.13;0.10;;;4.40;99.90;;;;;;5092080;28;20463;-72
2024/02/24 05:45:24;;;;;;;2.75;0.40;;;4.40;99.90;;;;;;5108199;28;20054;-73
2024/02/24 05:47:50;;;;;;;0.38;0.25;;;4.30;99.90;;;;;;5089344;28;20047;-73
2024/02/24 05:50:15;;;;;;;1.17;0.60;;;4.30;99.90;;;;;;5107288;28;20142;-73
2024/02/24 05:52:41;;;;;;;0.25;0.10;;;4.40;99.90;;;;;;5099801;28;20054;-73
2024/02/24 05:55:07;;;;;;;0.57;0.30;;;4.40;99.90;;;;;;5108925;28;20386;-73
2024/02/24 05:57:33;;;;;;;0.10;0.10;;;4.40;99.90;;;;;;5105042;28;20042;-72
2024/02/24 05:59:59;;;;;;;0.47;0.40;;;4.30;99.90;;;;;;5108189;28;20043;-73
2024/02/24 06:02:25;;;;;;;0.10;0.10;;;4.30;99.90;;;;;;5085110;28;20036;-72
2024/02/24 06:04:51;;;;;;;0.30;0.30;;;4.40;99.90;;;;;;5095680;28;20043;-72
2024/02/24 06:07:16;;;;;;;2.17;0.40;;;4.40;99.90;;;;;;5104651;28;20040;-73
2024/02/24 06:09:42;;;;;;;0.20;0.20;;;4.50;99.90;;;;;;5092297;28;20040;-73
2024/02/24 06:12:08;;;;;;;1.98;0.80;;;4.50;99.90;;;;;;5103497;28;20093;-73
2024/02/24 06:14:34;;;;;;;0.15;0.15;;;4.50;99.90;;;;;;5110146;28;20078;-74
2024/02/24 06:17:00;;;;;;;3.42;0.90;;;4.60;99.90;;;;;;5090070;28;20031;-73
2024/02/24 06:19:26;;;;;;;0.50;0.40;;;4.60;99.90;;;;;;5110952;28;20038;-72
2024/02/24 06:21:51;;;;;;;0.55;0.20;;;4.60;99.90;;;;;;5108132;28;20043;-72
2024/02/24 06:24:17;;;;;;;0.45;0.28;;;4.60;99.90;;;;;;5110562;28;20039;-73
2024/02/24 06:26:43;;;;;;;0.57;0.40;;;4.70;99.90;;;;;;5107517;28;20055;-73
2024/02/24 06:29:08;;;;;;;0.30;0.30;;;4.70;99.90;;;;;;5105794;28;20030;-73
2024/02/24 06:31:34;;;;;;;2.22;0.30;;;4.70;99.90;;;;;;5109707;28;20085;-73
2024/02/24 06:34:00;;;;;;;0.40;0.28;;;4.80;99.90;;;;;;5108618;28;20067;-72
2024/02/24 06:36:26;;;;;;;0.60;0.40;;;4.70;99.90;;;;;;5106537;28;20777;-72
2024/02/24 06:38:52;;;;;;;0.82;0.60;;;4.80;99.90;;;;;;5099100;28;20096;-73
2024/02/24 06:41:18;;;;;;;0.30;0.20;;;4.80;99.90;;;;;;5107478;28;20134;-73
2024/02/24 06:43:44;;;;;;;1.15;0.40;;;4.80;99.90;;;;;;5103003;28;20047;-72
2024/02/24 06:46:11;;;;;;;2.25;0.70;;;4.90;99.90;;;;;;5105627;28;20040;-72
2024/02/24 06:48:37;;;;;;;0.43;0.10;;;4.90;99.90;;;;;;5078507;28;20036;-72
2024/02/24 06:51:03;;;;;;;0.20;0.20;;;5.00;99.90;;;;;;5091480;28;20050;-73
2024/02/24 06:53:29;;;;;;;0.82;0.52;;;5.00;99.90;;;;;;5101515;28;20042;-72
2024/02/24 06:55:55;;;;;;;0.65;0.45;;;5.00;99.90;;;;;;5105785;28;20031;-72
2024/02/24 06:58:21;;;;;;;1.20;0.70;;;5.10;99.90;;;;;;5104337;28;20352;-73
2024/02/24 07:00:47;;;;;;;0.38;0.38;;;5.10;99.90;;;;;;5106659;28;20047;-73
2024/02/24 07:03:13;;;;;;;0.35;0.25;;;5.10;99.90;;;;;;5105118;28;20083;-72
2024/02/24 07:05:38;;;;;;;0.90;0.32;;;5.20;99.90;;;;;;5105609;28;20086;-73
2024/02/24 07:08:04;;;;;;;0.32;0.20;;;5.20;99.90;;;;;;5108062;28;20487;-72
2024/02/24 07:10:30;;;;;;;0.77;0.38;;;5.20;99.90;;;;;;5086299;28;20039;-73
2024/02/24 07:12:55;;;;;;;0.55;0.45;;;5.30;99.90;;;;;;5107172;28;20036;-74
2024/02/24 07:15:23;;;;;;;0.10;0.10;;;5.30;99.90;;;;;;5103159;28;20044;-72
2024/02/24 07:17:48;;;;;;;0.20;0.20;;;5.40;99.90;;;;;;5106405;28;20039;-72
2024/02/24 07:20:14;;;;;;;0.57;0.43;;;5.40;99.90;;;;;;5104195;28;20031;-72
2024/02/24 07:22:41;;;;;;;0.30;0.30;;;5.40;99.90;;;;;;5088429;28;20104;-72
2024/02/24 07:25:08;;;;;;;6.22;1.23;;;5.50;99.90;;;;;;5104572;28;20946;-72
2024/02/24 07:27:34;;;;;;;0.82;0.60;;;5.50;99.90;;;;;;5099887;28;20065;-73
2024/02/24 07:30:00;;;;;;;0.57;0.32;;;5.60;99.90;;;;;;5105804;28;20044;-73
2024/02/24 07:32:26;;;;;;;0.47;0.43;;;5.60;99.90;;;;;;5100767;28;20076;-73
2024/02/24 07:34:52;;;;;;;0.40;0.40;;;5.60;99.90;;;;;;5102453;28;20043;-73
2024/02/24 07:37:17;;;;;;;0.60;0.43;;;5.70;99.90;;;;;;5103968;28;20147;-73
2024/02/24 07:39:43;;;;;;;0.35;0.30;;;5.80;99.90;;;;;;5099745;28;20119;-72
2024/02/24 07:42:09;;;;;;;6.70;0.55;;;5.80;99.90;;;;;;5105250;28;20039;-73
2024/02/24 07:44:37;;;;;;;1.10;0.73;;;5.90;99.90;;;;;;5110860;28;20036;-74
2024/02/24 07:47:03;;;;;;;0.95;0.65;;;5.90;99.90;;;;;;5096179;28;20104;-73
2024/02/24 07:49:29;;;;;;;0.13;0.13;;;5.90;99.90;;;;;;5088711;28;20028;-72
2024/02/24 07:51:55;;;;;;;0.22;0.22;;;5.90;99.90;;;;;;5094395;28;20047;-73
2024/02/24 07:54:20;;;;;;;0.65;0.43;;;6.00;99.90;;;;;;5108291;28;20051;-72
2024/02/24 07:56:46;;;;;;;0.55;0.43;;;6.00;99.90;;;;;;5109036;28;20080;-73
2024/02/24 07:59:12;;;;;;;0.63;0.28;;;6.10;99.90;;;;;;5110210;28;20083;-73
2024/02/24 08:01:37;;;;;;;0.20;0.20;;;6.00;99.90;;;;;;5107728;28;20043;-73
2024/02/24 08:04:03;;;;;;;0.70;0.10;;;6.10;99.90;;;;;;5110397;28;20462;-72
2024/02/24 08:06:29;;;;;;;0.63;0.47;;;6.20;99.90;;;;;;5106199;28;20047;-72
2024/02/24 08:08:55;;;;;;;1.15;0.52;;;6.10;99.90;;;;;;5104779;28;20031;-73
2024/02/24 08:11:21;;;;;;;0.50;0.40;;;6.20;99.90;;;;;;5109015;28;20035;-72
2024/02/24 08:13:47;;;;;;;0.75;0.35;;;6.30;99.90;;;;;;5111276;28;20059;-73
2024/02/24 08:16:12;;;;;;;4.78;1.08;;;6.40;99.90;;;;;;5108997;28;20074;-73
2024/02/24 08:18:39;;;;;;;0.70;0.40;;;6.40;99.90;;;;;;5109997;28;20051;-72
2024/02/24 08:21:06;;;;;;;1.30;0.55;;;6.40;99.90;;;;;;5092972;28;20158;-72
2024/02/24 08:23:35;;;;;;;1.48;0.60;;;6.50;99.90;;;;;;5109809;28;20429;-71
2024/02/24 08:26:01;;;;;;;0.43;0.40;;;6.50;99.90;;;;;;5109732;28;20089;-72
2024/02/24 08:28:27;;;;;;;0.52;0.40;;;6.60;99.90;;;;;;5109883;28;20047;-72
2024/02/24 08:30:53;;;;;;;0.65;0.47;;;6.60;99.90;;;;;;5109833;28;20051;-72
2024/02/24 08:33:22;;;;;;;0.77;0.60;;;6.60;99.90;;;;;;5105601;28;20073;-72
2024/02/24 08:35:52;;;;;;;0.28;0.20;;;6.70;99.90;;;;;;5111814;28;20050;-72
2024/02/24 08:38:18;;;;;;;0.82;0.43;;;6.80;99.90;;;;;;5106739;28;20032;-73
2024/02/24 08:40:44;;;;;;;1.23;0.75;;;6.80;99.90;;;;;;5110710;28;20089;-72
2024/02/24 08:43:10;;;;;;;1.08;0.80;;;6.80;99.90;;;;;;5087629;28;20047;-72
2024/02/24 08:45:36;;;;;;;4.63;0.85;;;6.90;99.90;;;;;;5111752;28;20043;-73
2024/02/24 08:48:02;;;;;;;1.25;0.85;;;6.90;99.90;;;;;;5104592;28;20043;-73
2024/02/24 08:50:28;;;;;;;1.17;0.70;;;7.00;99.90;;;;;;5113909;28;20059;-72
2024/02/24 08:52:53;;;;;;;1.88;0.90;;;7.10;99.90;;;;;;5106603;28;20055;-73
2024/02/24 08:55:19;;;;;;;1.75;0.75;;;7.00;99.90;;;;;;5110748;28;20088;-72
2024/02/24 08:57:45;;;;;;;2.03;0.73;;;7.10;99.90;;;;;;5109676;28;20537;-73
2024/02/24 09:00:12;;;;;;;3.15;0.77;;;7.10;99.90;;;;;;5112328;28;20403;-73
2024/02/24 09:02:38;;;;;;;1.55;0.85;;;7.10;99.90;;;;;;5110173;28;20106;-73
2024/02/24 09:05:04;;;;;;;2.60;0.82;;;7.20;99.90;;;;;;5087831;28;20032;-74
2024/02/24 09:07:30;;;;;;;1.67;0.70;;;7.20;99.90;;;;;;5092803;28;20039;-74
2024/02/24 09:09:56;;;;;;;1.73;0.95;;;7.20;99.90;;;;;;5110285;28;20040;-73
2024/02/24 09:12:22;;;;;;;1.27;0.75;;;7.30;99.90;;;;;;5092669;28;20183;-74
2024/02/24 09:14:47;;;;;;;1.70;0.90;;;7.30;99.90;;;;;;5111098;28;20533;-73
2024/02/24 09:17:13;;;;;;;1.90;1.23;;;7.40;99.90;;;;;;5112148;28;20054;-74
2024/02/24 09:19:42;;;;;;;2.10;1.05;;;7.40;99.90;;;;;;5110362;28;20039;-74
2024/02/24 09:22:11;;;;;;;1.45;0.90;;;7.50;99.90;;;;;;5102600;28;20036;-74
2024/02/24 09:24:36;;;;;;;1.08;0.50;;;7.50;99.90;;;;;;5108289;28;20606;-74
2024/02/24 09:27:02;;;;;;;1.95;1.35;;;7.60;99.90;;;;;;5113528;28;20031;-74
2024/02/24 09:29:28;;;;;;;3.05;1.10;;;7.60;99.90;;;;;;5087594;28;20153;-74
2024/02/24 09:31:54;;;;;;;1.63;0.80;;;7.70;99.90;;;;;;5086590;28;21435;-74
2024/02/24 09:34:20;;;;;;;2.72;1.38;;;7.80;99.90;;;;;;5106622;28;20046;-74
2024/02/24 09:36:45;;;;;;;3.75;1.13;;;7.90;99.90;;;;;;5111749;28;20108;-73
2024/02/24 09:39:13;;;;;;;1.33;0.80;;;8.00;99.90;;;;;;5104134;28;20074;-73
2024/02/24 09:41:39;;;;;;;1.42;0.85;;;8.10;99.90;;;;;;5088133;28;20363;-73
2024/02/24 09:44:06;;;;;;;1.65;0.93;;;8.20;99.90;;;;;;5106999;28;20045;-73
2024/02/24 09:46:34;;;;;;;1.30;0.98;;;8.30;99.90;;;;;;5109586;28;20039;-74
2024/02/24 09:49:01;;;;;;;7.10;1.60;;;8.40;99.90;;;;;;5104833;28;20578;-74
2024/02/24 09:51:27;;;;;;;3.28;0.93;;;8.50;99.90;;;;;;5109207;28;20047;-74
2024/02/24 09:53:53;;;;;;;1.38;1.02;;;8.60;99.90;;;;;;5110888;28;20076;-74
2024/02/24 09:56:22;;;;;;;1.10;0.68;;;8.60;99.90;;;;;;5094441;28;20068;-74
2024/02/24 09:58:50;;;;;;;1.02;0.60;;;8.70;99.90;;;;;;5106341;28;20036;-74
2024/02/24 10:01:17;;;;;;;1.35;0.88;;;8.70;99.90;;;;;;5079225;28;20094;-73
2024/02/24 10:03:45;;;;;;;1.65;1.15;;;8.60;99.90;;;;;;5105384;28;20050;-74
2024/02/24 10:06:12;;;;;;;1.48;1.13;;;8.70;99.90;;;;;;5105937;28;20076;-74
2024/02/24 10:08:38;;;;;;;1.70;0.98;;;8.70;99.90;;;;;;5107847;28;20078;-74
2024/02/24 10:11:04;;;;;;;1.55;1.00;;;8.80;99.90;;;;;;5094211;28;20036;-74
2024/02/24 10:13:31;;;;;;;1.08;0.68;;;8.80;99.90;;;;;;5110434;28;20408;-74
2024/02/24 10:15:57;;;;;;;0.93;0.70;;;8.80;99.90;;;;;;5107949;28;20047;-72
2024/02/24 10:18:25;;;;;;;1.10;1.00;;;8.90;99.90;;;;;;5111333;28;20046;-73
2024/02/24 10:20:52;;;;;;;1.70;0.98;;;8.90;99.90;;;;;;5109390;28;20035;-73
2024/02/24 10:23:18;;;;;;;2.25;1.10;;;8.90;99.90;;;;;;5103121;28;20048;-73
2024/02/24 10:25:45;;;;;;;3.08;0.90;;;8.90;99.90;;;;;;5105213;28;20062;-73
2024/02/24 10:28:11;;;;;;;1.92;0.82;;;9.00;99.90;;;;;;5104786;28;20437;-74
2024/02/24 10:30:37;;;;;;;4.00;1.60;;;9.10;99.90;;;;;;5104242;28;20047;-73
2024/02/24 10:33:04;;;;;;;1.17;0.82;;;9.30;99.90;;;;;;5110359;28;20043;-74
2024/02/24 10:35:30;;;;;;;1.98;0.85;;;9.70;99.90;;;;;;5109975;28;20669;-73
2024/02/24 10:37:56;;;;;;;2.88;1.00;;;10.10;99.90;;;;;;5088483;28;20039;-73
2024/02/24 10:40:22;;;;;;;2.45;0.85;;;10.40;99.90;;;;;;5105626;28;20470;-74
2024/02/24 10:42:48;;;;;;;2.92;0.80;;;10.50;99.90;;;;;;5111339;28;20097;-74
2024/02/24 10:45:14;;;;;;;1.35;0.85;;;10.60;99.90;;;;;;5109145;28;20112;-73
2024/02/24 10:47:40;;;;;;;1.05;0.70;;;10.60;99.90;;;;;;5084223;28;20074;-73
2024/02/24 10:50:11;;;;;;;1.60;0.60;;;10.60;99.90;;;;;;5106556;28;20051;-73
2024/02/24 10:52:38;;;;;;;1.33;0.70;;;10.40;99.90;;;;;;5107214;28;20070;-73
2024/02/24 10:55:05;;;;;;;3.17;1.00;;;10.30;99.90;;;;;;5103018;28;20035;-73
2024/02/24 10:57:32;;;;;;;1.45;0.73;;;10.20;99.90;;;;;;5091374;28;20070;-73
2024/02/24 11:00:02;;;;;;;1.10;0.80;;;10.20;99.90;;;;;;5106110;28;20044;-73
2024/02/24 11:02:29;;;;;;;1.70;0.85;;;10.20;99.90;;;;;;5107655;28;20556;-73
2024/02/24 11:04:59;;;;;;;1.15;0.85;;;10.20;99.90;;;;;;5109382;28;20118;-73
2024/02/24 11:07:32;;;;;;;1.77;1.15;;;10.20;99.90;;;;;;5105997;28;20052;-73
2024/02/24 11:09:57;;;;;;;1.10;0.90;;;10.20;99.90;;;;;;5105866;28;20410;-74
2024/02/24 11:12:27;;;;;;;0.80;0.55;;;10.20;99.90;;;;;;5086381;28;20040;-74
2024/02/24 11:14:54;;;;;;;0.65;0.50;;;10.40;99.90;;;;;;5107166;28;20047;-74
2024/02/24 11:17:50;;;;;;;1.83;0.70;;;10.70;99.90;;;;;;5098911;28;20044;-73
2024/02/24 11:20:34;;;;;;;0.98;0.57;;;11.60;99.90;;;;;;5109284;28;20038;-74
2024/02/24 11:23:24;;;;;;;0.60;0.57;;;12.00;99.90;;;;;;5105766;28;20125;-74
2024/02/24 11:26:25;;;;;;;0.70;0.40;;;11.60;99.90;;;;;;5104462;28;20356;-73
2024/02/24 11:29:02;;;;;;;0.85;0.60;;;11.30;99.90;;;;;;5044230;28;20179;-74
2024/02/24 11:31:31;;;;;;;1.60;0.50;;;10.80;99.90;;;;;;5109524;27;20452;-74
2024/02/24 11:34:07;;;;;;;1.35;0.47;;;10.50;99.90;;;;;;5106260;28;20096;-74
2024/02/24 11:36:38;;;;;;;0.98;0.80;;;10.30;99.90;;;;;;5084572;28;20730;-74
2024/02/24 11:39:14;;;;;;;2.90;1.10;;;10.40;99.90;;;;;;5103677;28;20073;-74
2024/02/24 11:41:43;;;;;;;0.93;0.50;;;11.10;99.90;;;;;;5104531;28;20044;-73
2024/02/24 11:44:09;;;;;;;1.83;0.90;;;11.20;99.90;;;;;;5102258;28;20065;-74
2024/02/24 11:46:36;;;;;;;1.00;0.40;;;11.20;99.90;;;;;;5089757;28;20043;-74
2024/02/24 11:49:05;;;;;;;1.35;0.40;;;11.00;99.90;;;;;;5087946;28;20082;-74
2024/02/24 11:51:31;;;;;;;0.20;0.20;;;10.70;99.90;;;;;;5091491;28;20044;-73
2024/02/24 11:53:58;;;;;;;0.77;0.52;;;10.50;99.90;;;;;;5099771;28;20146;-73
2024/02/24 11:56:25;;;;;;;0.85;0.25;;;10.30;99.90;;;;;;5103451;28;20875;-73
2024/02/24 11:58:52;;;;;;;0.00;0.00;;;10.00;99.90;;;;;;5098382;28;20039;-72
2024/02/24 12:01:18;;;;;;;0.10;0.10;;;9.60;99.90;;;;;;5080726;28;20538;-73
2024/02/24 12:03:51;;;;;;;0.30;0.05;;;9.30;99.90;;;;;;5101738;28;20071;-73
2024/02/24 12:06:17;;;;;;;0.15;0.00;;;9.10;99.90;;;;;;5100774;28;20480;-73
2024/02/24 12:08:44;;;;;;;0.20;0.00;;;10.30;99.90;;;;;;5098084;28;20040;-74
2024/02/24 12:11:10;;;;;;;0.20;0.10;;;11.50;99.90;;;;;;5105813;28;20039;-74
2024/02/24 12:13:36;;;;;;;0.75;0.25;;;11.50;99.90;;;;;;5103852;28;20040;-74
2024/02/24 12:16:02;;;;;;;0.90;0.22;;;10.80;99.90;;;;;;5101730;28;20062;-73
2024/02/24 12:18:29;;;;;;;0.85;0.25;;;10.30;99.90;;;;;;5103151;28;20089;-73
2024/02/24 12:20:55;;;;;;;0.40;0.20;;;9.70;99.90;;;;;;5104287;28;20043;-74
2024/02/24 12:23:23;;;;;;;0.38;0.20;;;9.30;99.90;;;;;;5098423;28;20040;-73
2024/02/24 12:25:49;;;;;;;1.10;1.00;;;8.90;99.90;;;;;;5086926;28;20040;-73
2024/02/24 12:28:16;;;;;;;1.48;0.52;;;8.60;99.90;;;;;;5106247;28;20039;-73
2024/02/24 12:30:46;;;;;;;0.45;0.35;;;8.30;99.90;;;;;;5101922;28;20036;-72
2024/02/24 12:33:14;;;;;;;0.38;0.28;;;8.00;99.90;;;;;;5093767;28;20118;-72
2024/02/24 12:35:40;;;;;;;0.50;0.43;;;7.70;99.90;;;;;;5108069;28;20050;-72
2024/02/24 12:38:07;;;;;;;0.77;0.55;;;7.60;99.90;;;;;;5109634;28;20119;-72
2024/02/24 12:40:34;;;;;;;0.77;0.55;;;7.30;99.90;;;;;;5104840;28;20419;-72
2024/02/24 12:43:02;;;;;;;0.40;0.35;;;7.20;99.90;;;;;;5093880;28;20074;-72
2024/02/24 12:45:28;;;;;;;0.60;0.25;;;7.10;99.90;;;;;;5106139;28;20039;-73
2024/02/24 12:47:54;;;;;;;2.97;0.50;;;7.10;99.90;;;;;;5107591;28;20495;-73
2024/02/24 12:50:25;;;;;;;0.30;0.28;;;7.20;99.90;;;;;;5087035;28;20051;-73
2024/02/24 12:52:52;;;;;;;0.98;0.50;;;7.20;99.90;;;;;;5106532;28;20048;-73